Perkinsville, Vermont
Current Conditions -  °F | °C
As of 8:54 AM on Friday 19 Dec 2014 (Local Time) from KVSF Reporting Station
Overcast Overcast  
Wind Chill: -5°   Ceiling: 2600
Heat Index: -2°   Visibility: 10mi
Dew Point: -7°   Wind: 5mph
Humidity: 69%   Direction: 350°N
Pressure: 29.97"   Gusts: NA
Location:  43.37°N, 72.51°W
Report Text: KVSF 191354Z AUTO 35004KT 10SM OVC026 M02/M07 A2997 RMK AO2 SLP157 T10171067 TSNO
Loading
Personal Weather Stations






























Interactive Weather Map New forecast layout! Learn more

10-Day Weather Forecast

Advertisements
Track Severe Weather on mobile